createdAt,value
2022-09-01T00:00:15.139Z,101648.22
2022-09-01T00:02:45.282Z,101645.25
2022-09-01T00:05:13.387Z,101649.59
2022-09-01T00:07:41.745Z,101643.53
2022-09-01T00:10:10.763Z,101653.75
2022-09-01T00:12:39.919Z,101651.25
2022-09-01T00:15:10.372Z,101646.25
2022-09-01T00:17:38.817Z,101645.53
2022-09-01T00:20:09.486Z,101643.91
2022-09-01T00:22:37.602Z,101650.50
2022-09-01T00:25:07.036Z,101636.59
2022-09-01T00:27:38.565Z,101638.59
2022-09-01T00:30:07.835Z,101645.78
2022-09-01T00:32:36.272Z,101645.41
2022-09-01T00:35:04.947Z,101647.03
2022-09-01T00:37:34.473Z,101648.56
2022-09-01T00:40:02.351Z,101645.06
2022-09-01T00:42:30.758Z,101640.97
2022-09-01T00:44:58.738Z,101645.19
2022-09-01T00:47:28.022Z,101639.09
2022-09-01T00:49:55.908Z,101639.25
2022-09-01T00:52:30.226Z,101638.38
2022-09-01T00:55:04.700Z,101639.97
2022-09-01T00:57:33.896Z,101634.53
2022-09-01T01:00:11.569Z,101636.66
2022-09-01T01:02:40.856Z,101637.13
2022-09-01T01:05:12.608Z,101633.78
2022-09-01T01:07:47.492Z,101632.16
2022-09-01T01:10:22.318Z,101627.66
2022-09-01T01:12:51.871Z,101632.28
2022-09-01T01:15:20.761Z,101631.03
2022-09-01T01:17:48.705Z,101631.41
2022-09-01T01:20:38.882Z,101632.28
2022-09-01T01:23:17.820Z,101625.22
2022-09-01T01:25:51.416Z,101622.09
2022-09-01T01:28:26.856Z,101631.91
2022-09-01T01:30:59.740Z,101626.22
2022-09-01T01:33:31.087Z,101625.34
2022-09-01T01:35:59.950Z,101623.50
2022-09-01T01:38:31.239Z,101632.44
2022-09-01T01:41:01.499Z,101636.63
2022-09-01T01:43:29.700Z,101635.88
2022-09-01T01:46:02.641Z,101629.91
2022-09-01T01:48:38.852Z,101627.94
2022-09-01T01:51:08.062Z,101639.88
2022-09-01T01:53:36.476Z,101638.38
2022-09-01T01:56:06.254Z,101642.22
2022-09-01T01:58:37.679Z,101647.06
2022-09-01T02:01:12.720Z,101648.91
2022-09-01T02:03:41.850Z,101646.06
2022-09-01T02:06:12.181Z,101653.38
2022-09-01T02:08:41.999Z,101657.25
2022-09-01T02:11:13.184Z,101649.78
2022-09-01T02:13:41.192Z,101651.97
2022-09-01T02:16:12.793Z,101645.25
2022-09-01T02:18:48.057Z,101649.59
2022-09-01T02:21:19.610Z,101651.47
2022-09-01T02:23:49.710Z,101646.63
2022-09-01T02:26:22.834Z,101648.97
2022-09-01T02:28:55.327Z,101653.16
2022-09-01T02:31:28.481Z,101648.22
2022-09-01T02:34:01.153Z,101648.72
2022-09-01T02:36:32.834Z,101641.75
2022-09-01T02:39:01.271Z,101642.34
2022-09-01T02:41:32.336Z,101640.09
2022-09-01T02:44:02.321Z,101633.88
2022-09-01T02:46:30.953Z,101637.00
2022-09-01T02:49:00.772Z,101634.50
2022-09-01T02:51:29.330Z,101629.81
2022-09-01T02:53:57.918Z,101633.00
2022-09-01T02:56:27.336Z,101634.75
2022-09-01T02:58:57.276Z,101637.22
2022-09-01T03:01:29.655Z,101635.47
2022-09-01T03:04:02.883Z,101639.69
2022-09-01T03:06:34.253Z,101634.44
2022-09-01T03:09:03.391Z,101643.38
2022-09-01T03:11:34.968Z,101645.75
2022-09-01T03:14:05.106Z,101638.41
2022-09-01T03:16:33.694Z,101645.13
2022-09-01T03:19:03.955Z,101639.00
2022-09-01T03:21:32.610Z,101646.69
2022-09-01T03:24:02.100Z,101646.44
2022-09-01T03:26:30.486Z,101650.19
2022-09-01T03:28:59.562Z,101641.25
2022-09-01T03:31:31.187Z,101646.78
2022-09-01T03:34:06.022Z,101649.44
2022-09-01T03:36:39.864Z,101653.00
2022-09-01T03:39:13.393Z,101649.53
2022-09-01T03:41:45.159Z,101651.84
2022-09-01T03:44:17.482Z,101649.78
2022-09-01T03:46:47.852Z,101649.50
2022-09-01T03:49:25.065Z,101648.50
2022-09-01T03:51:54.028Z,101646.53
2022-09-01T03:54:24.880Z,101641.88
2022-09-01T03:56:55.031Z,101634.16
2022-09-01T03:59:25.759Z,101635.03
2022-09-01T04:01:55.226Z,101637.22
2022-09-01T04:04:23.251Z,101633.13
2022-09-01T04:06:51.298Z,101628.44
2022-09-01T04:09:19.357Z,101630.28
2022-09-01T04:11:48.467Z,101629.19
2022-09-01T04:14:19.701Z,101625.31
2022-09-01T04:17:07.394Z,101637.94
2022-09-01T04:19:39.585Z,101623.13
2022-09-01T04:22:13.540Z,101624.25
2022-09-01T04:24:45.652Z,101629.28
2022-09-01T04:27:15.539Z,101622.31
2022-09-01T04:29:46.934Z,101626.13
2022-09-01T04:32:15.867Z,101628.63
2022-09-01T04:34:51.616Z,101622.06
2022-09-01T04:37:23.613Z,101629.31
2022-09-01T04:39:57.439Z,101621.44
2022-09-01T04:42:29.410Z,101615.13
2022-09-01T04:45:09.952Z,101613.28
2022-09-01T04:47:42.067Z,101619.69
2022-09-01T04:50:17.155Z,101625.38
2022-09-01T04:53:01.280Z,101629.84
2022-09-01T04:55:32.667Z,101620.28
2022-09-01T04:58:08.362Z,101624.09
2022-09-01T05:00:38.800Z,101630.00
2022-09-01T05:03:09.237Z,101622.56
2022-09-01T05:06:02.494Z,101629.09
2022-09-01T05:08:35.277Z,101620.75
2022-09-01T05:11:07.886Z,101621.06
2022-09-01T05:13:41.072Z,101625.50
2022-09-01T05:16:13.038Z,101628.22
2022-09-01T05:18:45.202Z,101630.75
2022-09-01T05:21:17.750Z,101634.44
2022-09-01T05:23:47.084Z,101630.94
2022-09-01T05:26:18.143Z,101635.22
2022-09-01T05:28:48.364Z,101630.19
2022-09-01T05:31:19.778Z,101635.28
2022-09-01T05:33:50.077Z,101628.66
2022-09-01T05:36:23.054Z,101636.28
2022-09-01T05:38:52.854Z,101640.00
2022-09-01T05:41:23.906Z,101638.03
2022-09-01T05:43:57.823Z,101640.41
2022-09-01T05:46:28.678Z,101637.34
2022-09-01T05:48:58.433Z,101639.09
2022-09-01T05:51:44.465Z,101644.78
2022-09-01T05:54:15.250Z,101643.25
2022-09-01T05:56:45.033Z,101640.38
2022-09-01T05:59:24.397Z,101647.16
2022-09-01T06:01:55.459Z,101641.69
2022-09-01T06:04:25.815Z,101647.97
2022-09-01T06:07:06.498Z,101646.00
2022-09-01T06:09:39.759Z,101649.25
2022-09-01T06:12:09.774Z,101650.56
2022-09-01T06:14:37.991Z,101651.34
2022-09-01T06:17:10.107Z,101650.56
2022-09-01T06:19:39.997Z,101651.88
2022-09-01T06:22:10.666Z,101650.94
2022-09-01T06:24:39.837Z,101653.94
2022-09-01T06:27:09.854Z,101655.38
2022-09-01T06:32:44.016Z,101655.78
2022-09-01T06:39:20.049Z,101657.41
2022-09-01T06:42:41.414Z,101662.63
2022-09-01T07:16:35.385Z,101666.19
2022-09-01T07:19:13.340Z,101670.41
2022-09-01T07:24:40.216Z,101668.91
2022-09-01T07:27:50.919Z,101672.03
2022-09-01T07:30:24.280Z,101675.88
2022-09-01T07:32:54.165Z,101666.56
2022-09-01T07:35:27.138Z,101675.66
2022-09-01T07:38:47.729Z,101674.34
2022-09-01T07:44:10.755Z,101671.41
2022-09-01T07:50:40.366Z,101678.09
2022-09-01T08:32:02.699Z,101694.09
2022-09-01T09:13:17.008Z,101671.72
2022-09-01T09:21:27.950Z,101664.22
2022-09-01T09:24:12.091Z,101663.63
2022-09-01T09:26:43.474Z,101665.81
2022-09-01T09:29:11.663Z,101662.19
2022-09-01T09:31:45.739Z,101662.47
2022-09-01T09:34:19.935Z,101663.63
2022-09-01T09:36:54.626Z,101658.41
2022-09-01T09:39:24.976Z,101655.97
2022-09-01T09:42:09.099Z,101651.06
2022-09-01T09:44:44.305Z,101655.25
2022-09-01T09:47:43.046Z,101655.44
2022-09-01T09:50:20.195Z,101650.50
2022-09-01T09:52:49.344Z,101653.41
2022-09-01T09:55:30.925Z,101656.59
2022-09-01T09:58:02.049Z,101644.88
2022-09-01T10:00:32.490Z,101648.19
2022-09-01T10:03:04.584Z,101640.97
2022-09-01T10:05:43.866Z,101638.22
2022-09-01T10:08:15.983Z,101630.56
2022-09-01T10:10:58.002Z,101621.63
2022-09-01T10:13:29.124Z,101622.91
2022-09-01T10:16:03.696Z,101629.06
2022-09-01T10:18:38.331Z,101623.91
2022-09-01T10:21:13.404Z,101625.38
2022-09-01T10:23:43.264Z,101618.97
2022-09-01T10:26:19.105Z,101626.53
2022-09-01T10:28:52.662Z,101621.44
2022-09-01T10:31:21.711Z,101617.69
2022-09-01T10:33:51.213Z,101624.22
2022-09-01T10:36:24.506Z,101619.56
2022-09-01T10:38:58.736Z,101614.84
2022-09-01T10:42:00.237Z,101604.03
2022-09-01T10:44:34.369Z,101607.59
2022-09-01T10:47:13.617Z,101615.38
2022-09-01T10:49:59.888Z,101611.63
2022-09-01T10:53:09.025Z,101600.59
2022-09-01T10:55:45.518Z,101600.19
2022-09-01T11:02:24.870Z,101596.06
2022-09-01T11:05:18.231Z,101598.19
2022-09-01T11:08:14.627Z,101592.22
2022-09-01T11:10:50.405Z,101585.59
2022-09-01T11:13:37.618Z,101586.34
2022-09-01T11:19:41.468Z,101579.56
2022-09-01T11:22:29.340Z,101577.22
2022-09-01T11:25:14.445Z,101577.53
2022-09-01T11:28:01.099Z,101577.59
2022-09-01T11:30:52.930Z,101583.28
2022-09-01T11:33:44.566Z,101572.81
2022-09-01T11:36:24.352Z,101577.47
2022-09-01T11:38:57.925Z,101578.91
2022-09-01T11:41:33.063Z,101575.34
2022-09-01T11:44:03.251Z,101578.09
2022-09-01T11:46:35.039Z,101580.69
2022-09-01T11:49:08.172Z,101577.56
2022-09-01T11:51:47.111Z,101561.59
2022-09-01T11:54:18.035Z,101559.88
2022-09-01T11:56:46.224Z,101556.56
2022-09-01T11:59:14.426Z,101556.34
2022-09-01T12:01:44.680Z,101552.38
2022-09-01T12:04:26.270Z,101563.59
2022-09-01T12:06:59.202Z,101549.63
2022-09-01T12:09:34.866Z,101543.88
2022-09-01T12:12:03.523Z,101543.00
2022-09-01T12:14:48.843Z,101547.38
2022-09-01T12:17:22.046Z,101542.41
2022-09-01T12:19:50.400Z,101542.50
2022-09-01T12:22:20.095Z,101540.44
2022-09-01T12:24:49.698Z,101542.06
2022-09-01T12:27:17.912Z,101530.50
2022-09-01T12:29:47.308Z,101527.81
2022-09-01T12:32:17.550Z,101520.91
2022-09-01T12:34:49.121Z,101521.31
2022-09-01T12:37:23.247Z,101518.53
2022-09-01T12:39:52.922Z,101521.47
2022-09-01T12:42:28.424Z,101523.06
2022-09-01T12:44:59.522Z,101526.38
2022-09-01T12:47:52.110Z,101519.63
2022-09-01T12:50:56.114Z,101507.91
2022-09-01T12:53:30.612Z,101516.53
2022-09-01T12:56:05.258Z,101504.78
2022-09-01T12:58:34.211Z,101505.47
2022-09-01T13:01:16.187Z,101499.63
2022-09-01T13:04:23.725Z,101499.28
2022-09-01T13:06:54.181Z,101502.75
2022-09-01T13:09:23.099Z,101500.16
2022-09-01T13:12:07.689Z,101486.50
2022-09-01T13:14:36.824Z,101492.56
2022-09-01T13:17:06.015Z,101492.69
2022-09-01T13:19:43.825Z,101482.91
2022-09-01T13:22:14.482Z,101487.22
2022-09-01T13:24:45.507Z,101488.94
2022-09-01T13:27:22.745Z,101484.97
2022-09-01T13:29:52.509Z,101489.63
2022-09-01T13:32:22.735Z,101478.41
2022-09-01T13:34:52.739Z,101470.28
2022-09-01T13:37:22.995Z,101473.06
2022-09-01T13:39:51.366Z,101465.28
2022-09-01T13:42:20.058Z,101463.06
2022-09-01T13:44:52.360Z,101447.69
2022-09-01T13:47:32.016Z,101453.75
2022-09-01T13:50:11.397Z,101458.41
2022-09-01T13:52:43.520Z,101459.63
2022-09-01T13:55:15.509Z,101455.63
2022-09-01T13:57:45.853Z,101454.63
2022-09-01T14:00:17.598Z,101444.44
2022-09-01T14:02:50.353Z,101452.69
2022-09-01T14:05:21.185Z,101452.69
2022-09-01T14:07:53.785Z,101445.13
2022-09-01T14:10:24.781Z,101448.41
2022-09-01T14:12:54.244Z,101440.25
2022-09-01T14:15:27.133Z,101447.50
2022-09-01T14:17:58.168Z,101441.81
2022-09-01T14:20:30.193Z,101448.03
2022-09-01T14:23:00.659Z,101444.78
2022-09-01T14:25:29.108Z,101440.97
2022-09-01T14:27:57.266Z,101440.31
2022-09-01T14:30:31.159Z,101438.41
2022-09-01T14:33:00.622Z,101437.03
2022-09-01T14:35:29.043Z,101436.50
2022-09-01T14:37:58.032Z,101430.94
2022-09-01T14:40:29.396Z,101437.03
2022-09-01T14:42:57.824Z,101422.31
2022-09-01T14:45:28.638Z,101428.91
2022-09-01T14:48:00.798Z,101423.72
2022-09-01T14:50:32.616Z,101418.06
2022-09-01T14:53:02.891Z,101424.28
2022-09-01T14:55:33.188Z,101419.22
2022-09-01T14:58:01.774Z,101417.84
2022-09-01T15:00:30.260Z,101417.81
2022-09-01T15:02:59.091Z,101417.66
2022-09-01T15:05:27.216Z,101415.41
2022-09-01T15:07:55.455Z,101410.22
2022-09-01T15:10:26.354Z,101418.72
2022-09-01T15:12:58.079Z,101416.84
2022-09-01T15:15:27.823Z,101416.97
2022-09-01T15:17:57.303Z,101409.56
2022-09-01T15:20:43.744Z,101404.56
2022-09-01T15:23:12.636Z,101394.38
2022-09-01T15:25:40.831Z,101402.34
2022-09-01T15:28:11.003Z,101393.69
2022-09-01T15:30:39.658Z,101393.72
2022-09-01T15:33:13.385Z,101403.41
2022-09-01T15:35:43.681Z,101393.69
2022-09-01T15:38:16.142Z,101391.63
2022-09-01T15:40:52.051Z,101396.31
2022-09-01T15:43:28.399Z,101392.00
2022-09-01T15:45:58.371Z,101392.53
2022-09-01T15:48:27.300Z,101387.50
2022-09-01T15:50:59.787Z,101393.38
2022-09-01T15:53:28.014Z,101390.78
2022-09-01T15:55:55.965Z,101378.19
2022-09-01T15:58:27.153Z,101386.81
2022-09-01T16:01:03.845Z,101380.09
2022-09-01T16:03:32.002Z,101385.59
2022-09-01T16:06:01.875Z,101381.34
2022-09-01T16:08:30.650Z,101374.91
2022-09-01T16:10:58.723Z,101373.72
2022-09-01T16:13:27.885Z,101376.81
2022-09-01T16:16:10.109Z,101372.00
2022-09-01T16:18:43.316Z,101375.78
2022-09-01T16:21:17.599Z,101382.34
2022-09-01T16:23:49.129Z,101380.47
2022-09-01T16:26:18.046Z,101378.59
2022-09-01T16:28:49.644Z,101369.56
2022-09-01T16:31:25.679Z,101369.06
2022-09-01T16:33:57.077Z,101360.97
2022-09-01T16:36:36.244Z,101366.47
2022-09-01T16:39:14.269Z,101364.59
2022-09-01T16:41:56.217Z,101361.66
2022-09-01T16:44:36.579Z,101364.41
2022-09-01T16:47:19.647Z,101360.28
2022-09-01T16:49:56.851Z,101357.19
2022-09-01T16:52:29.074Z,101357.84
2022-09-01T16:55:12.861Z,101353.91
2022-09-01T16:57:55.059Z,101365.94
2022-09-01T17:00:33.261Z,101349.06
2022-09-01T17:03:19.189Z,101355.38
2022-09-01T17:05:54.962Z,101349.00
2022-09-01T17:08:25.984Z,101351.94
2022-09-01T17:10:59.504Z,101352.66
2022-09-01T17:13:38.786Z,101362.16
2022-09-01T17:16:12.694Z,101349.53
2022-09-01T17:18:48.568Z,101355.19
2022-09-01T17:21:21.915Z,101352.28
2022-09-01T17:23:57.216Z,101351.19
2022-09-01T17:26:28.236Z,101352.56
2022-09-01T17:29:01.769Z,101350.16
2022-09-01T17:31:44.879Z,101346.38
2022-09-01T17:34:29.373Z,101349.44
2022-09-01T17:37:06.207Z,101353.78
2022-09-01T17:39:43.714Z,101348.06
2022-09-01T17:42:25.039Z,101342.66
2022-09-01T17:44:56.404Z,101351.28
2022-09-01T17:47:37.241Z,101352.84
2022-09-01T17:50:16.958Z,101354.91
2022-09-01T17:52:59.279Z,101358.44
2022-09-01T17:55:43.239Z,101350.19
2022-09-01T17:58:21.828Z,101357.03
2022-09-01T18:01:00.604Z,101355.47
2022-09-01T18:03:46.339Z,101350.59
2022-09-01T18:06:26.926Z,101346.72
2022-09-01T18:08:58.220Z,101344.38
2022-09-01T18:11:36.660Z,101348.47
2022-09-01T18:14:09.957Z,101347.88
2022-09-01T18:16:58.674Z,101353.63
2022-09-01T18:19:33.507Z,101356.50
2022-09-01T18:22:08.666Z,101358.16
2022-09-01T18:24:47.151Z,101364.00
2022-09-01T18:27:15.479Z,101365.69
2022-09-01T18:29:44.139Z,101361.38
2022-09-01T18:32:31.390Z,101373.34
2022-09-01T18:35:13.501Z,101373.25
2022-09-01T18:37:56.992Z,101373.38
2022-09-01T18:40:31.444Z,101373.38
2022-09-01T18:43:10.364Z,101373.03
2022-09-01T18:45:48.432Z,101372.69
2022-09-01T18:48:31.191Z,101367.66
2022-09-01T18:51:05.140Z,101373.25
2022-09-01T18:53:43.062Z,101382.97
2022-09-01T18:56:22.173Z,101378.75
2022-09-01T18:59:05.262Z,101383.13
2022-09-01T19:01:35.177Z,101387.84
2022-09-01T19:04:16.768Z,101388.53
2022-09-01T19:06:53.541Z,101387.84
2022-09-01T19:09:31.714Z,101388.47
2022-09-01T19:12:10.596Z,101380.97
2022-09-01T19:14:46.511Z,101391.91
2022-09-01T19:17:33.662Z,101390.09
2022-09-01T19:20:05.213Z,101385.13
2022-09-01T19:22:41.934Z,101383.00
2022-09-01T19:25:33.531Z,101378.50
2022-09-01T19:28:05.730Z,101389.19
2022-09-01T19:30:35.772Z,101386.75
2022-09-01T19:33:06.793Z,101390.38
2022-09-01T19:35:37.947Z,101395.47
2022-09-01T19:38:08.877Z,101382.09
2022-09-01T19:40:41.775Z,101390.16
2022-09-01T19:43:13.558Z,101391.66
2022-09-01T19:45:52.469Z,101397.41
2022-09-01T19:48:26.567Z,101397.16
2022-09-01T19:50:57.689Z,101392.53
2022-09-01T19:53:45.555Z,101393.06
2022-09-01T19:56:20.319Z,101391.72
2022-09-01T19:58:57.999Z,101391.66
2022-09-01T20:01:39.092Z,101391.13
2022-09-01T20:04:18.324Z,101394.78
2022-09-01T20:06:52.162Z,101390.56
2022-09-01T20:09:26.110Z,101390.03
2022-09-01T20:12:01.238Z,101394.06
2022-09-01T20:14:52.077Z,101389.31
2022-09-01T20:17:26.896Z,101396.97
2022-09-01T20:20:01.475Z,101381.13
2022-09-01T20:22:36.444Z,101390.66
2022-09-01T20:25:09.781Z,101387.19
2022-09-01T20:27:48.850Z,101379.81
2022-09-01T20:30:19.833Z,101391.22
2022-09-01T20:32:56.590Z,101393.06
2022-09-01T20:35:31.064Z,101394.94
2022-09-01T20:38:03.643Z,101395.81
2022-09-01T20:40:36.318Z,101390.19
2022-09-01T20:43:22.105Z,101388.59
2022-09-01T20:45:50.990Z,101387.47
2022-09-01T20:48:23.693Z,101385.16
2022-09-01T20:50:58.334Z,101385.56
2022-09-01T20:53:42.803Z,101385.16
2022-09-01T20:56:20.466Z,101385.56
2022-09-01T20:58:58.495Z,101384.00
2022-09-01T21:01:34.284Z,101383.28
2022-09-01T21:04:09.344Z,101392.50
2022-09-01T21:06:54.569Z,101393.06
2022-09-01T21:09:34.895Z,101393.50
2022-09-01T21:12:09.810Z,101390.91
2022-09-01T21:14:56.098Z,101395.78
2022-09-01T21:17:31.638Z,101393.50
2022-09-01T21:20:09.873Z,101400.41
2022-09-01T21:22:37.908Z,101393.91
2022-09-01T21:25:06.856Z,101390.88
2022-09-01T21:27:42.084Z,101389.25
2022-09-01T21:30:15.120Z,101392.84
2022-09-01T21:32:43.694Z,101387.34
2022-09-01T21:35:14.194Z,101375.66
2022-09-01T21:37:42.570Z,101383.44
2022-09-01T21:40:12.833Z,101376.22
2022-09-01T21:42:44.543Z,101380.25
2022-09-01T21:45:16.221Z,101375.75
2022-09-01T21:47:46.266Z,101375.47
2022-09-01T21:50:15.376Z,101376.63
2022-09-01T21:52:43.796Z,101375.91
2022-09-01T21:55:13.024Z,101371.97
2022-09-01T21:57:42.246Z,101377.72
2022-09-01T22:00:15.182Z,101368.34
2022-09-01T22:02:43.566Z,101369.94
2022-09-01T22:05:12.596Z,101368.88
2022-09-01T22:07:42.485Z,101370.56
2022-09-01T22:10:15.619Z,101366.09
2022-09-01T22:12:45.602Z,101367.69
2022-09-01T22:15:19.049Z,101366.38
2022-09-01T22:17:47.937Z,101365.69
2022-09-01T22:20:19.576Z,101363.22
2022-09-01T22:22:47.822Z,101359.31
2022-09-01T22:25:18.460Z,101355.44
2022-09-01T22:27:46.468Z,101352.81
2022-09-01T22:30:16.720Z,101358.84
2022-09-01T22:32:47.461Z,101359.13
2022-09-01T22:35:17.076Z,101357.84
2022-09-01T22:37:45.755Z,101359.13
2022-09-01T22:40:16.065Z,101363.44
2022-09-01T22:42:44.191Z,101360.78
2022-09-01T22:45:13.735Z,101361.66
2022-09-01T22:47:43.969Z,101358.16
2022-09-01T22:50:12.905Z,101365.97
2022-09-01T22:52:41.057Z,101357.91
2022-09-01T22:55:10.850Z,101359.31
2022-09-01T22:57:39.032Z,101358.09
2022-09-01T23:00:10.746Z,101360.78
2022-09-01T23:02:38.886Z,101353.13
2022-09-01T23:05:09.573Z,101353.50
2022-09-01T23:07:39.583Z,101352.34
2022-09-01T23:10:09.821Z,101348.78
2022-09-01T23:12:38.512Z,101353.94
2022-09-01T23:15:07.778Z,101341.56
2022-09-01T23:17:36.693Z,101346.59
2022-09-01T23:20:07.178Z,101352.78
2022-09-01T23:22:36.632Z,101343.50
2022-09-01T23:25:05.369Z,101343.22
2022-09-01T23:27:33.653Z,101332.44
2022-09-01T23:30:01.867Z,101339.63
2022-09-01T23:32:30.127Z,101335.22
2022-09-01T23:34:59.080Z,101330.06
2022-09-01T23:37:27.462Z,101331.78
2022-09-01T23:39:57.490Z,101325.38
2022-09-01T23:42:26.358Z,101329.91
2022-09-01T23:44:54.302Z,101326.13
2022-09-01T23:47:22.304Z,101327.38
2022-09-01T23:49:50.455Z,101328.66
2022-09-01T23:52:18.448Z,101324.78
2022-09-01T23:54:46.536Z,101327.28
2022-09-01T23:57:15.991Z,101320.09
2022-09-01T23:59:44.025Z,101323.38
